createdAt,value
2019-06-27T00:00:44.129Z,101917.55
2019-06-27T00:03:13.541Z,101919.95
2019-06-27T00:05:42.937Z,101921.41
2019-06-27T00:08:12.290Z,101924.25
2019-06-27T00:10:41.638Z,101919.16
2019-06-27T00:13:11.027Z,101927.27
2019-06-27T00:15:40.402Z,101926.47
2019-06-27T00:18:09.733Z,101930.66
2019-06-27T00:20:39.110Z,101923.81
2019-06-27T00:23:08.938Z,101920.87
2019-06-27T00:25:38.295Z,101925.40
2019-06-27T00:28:07.664Z,101925.92
2019-06-27T00:30:37.032Z,101927.42
2019-06-27T00:33:06.390Z,101921.33
2019-06-27T00:35:35.755Z,101921.94
2019-06-27T00:38:05.122Z,101929.64
2019-06-27T00:40:34.483Z,101928.84
2019-06-27T00:43:03.864Z,101932.51
2019-06-27T00:45:34.227Z,101926.50
2019-06-27T00:48:03.827Z,101933.20
2019-06-27T00:50:33.197Z,101928.95
2019-06-27T00:53:02.559Z,101930.38
2019-06-27T00:55:31.937Z,101935.83
2019-06-27T00:58:01.360Z,101934.20
2019-06-27T01:00:30.731Z,101934.38
2019-06-27T01:03:00.134Z,101938.45
2019-06-27T01:05:29.500Z,101938.13
2019-06-27T01:07:58.909Z,101941.80
2019-06-27T01:10:28.287Z,101938.45
2019-06-27T01:12:57.654Z,101931.97
2019-06-27T01:15:27.032Z,101938.73
2019-06-27T01:17:56.407Z,101939.26
2019-06-27T01:20:25.774Z,101938.52
2019-06-27T01:22:55.174Z,101938.69
2019-06-27T01:25:24.524Z,101946.27
2019-06-27T01:27:53.888Z,101942.83
2019-06-27T01:30:23.676Z,101943.38
2019-06-27T01:32:53.058Z,101949.64
2019-06-27T01:35:22.434Z,101948.42
2019-06-27T01:37:51.792Z,101948.44
2019-06-27T01:40:21.209Z,101943.69
2019-06-27T01:42:50.584Z,101941.55
2019-06-27T01:45:25.500Z,101938.16
2019-06-27T01:47:54.877Z,101935.95
2019-06-27T01:50:24.253Z,101932.55
2019-06-27T01:52:53.654Z,101935.27
2019-06-27T01:55:24.071Z,101940.19
2019-06-27T01:57:53.432Z,101944.23
2019-06-27T02:00:23.639Z,101939.47
2019-06-27T02:02:53.072Z,101947.88
2019-06-27T02:05:22.420Z,101947.95
2019-06-27T02:07:51.835Z,101953.29
2019-06-27T02:10:21.330Z,101956.40
2019-06-27T02:12:50.777Z,101955.56
2019-06-27T02:15:22.256Z,101949.04
2019-06-27T02:17:51.714Z,101957.02
2019-06-27T02:20:21.618Z,101962.78
2019-06-27T02:22:51.042Z,101959.35
2019-06-27T02:25:20.954Z,101957.20
2019-06-27T02:28:03.015Z,101968.23
2019-06-27T02:30:30.132Z,101960.39
2019-06-27T02:32:59.512Z,101960.88
2019-06-27T02:35:28.932Z,101957.84
2019-06-27T02:37:58.341Z,101961.84
2019-06-27T02:40:27.724Z,101953.09
2019-06-27T02:42:57.353Z,101967.62
2019-06-27T02:45:26.892Z,101972.47
2019-06-27T02:47:56.259Z,101967.72
2019-06-27T02:50:25.701Z,101980.08
2019-06-27T02:52:55.078Z,101981.45
2019-06-27T02:55:24.455Z,101981.89
2019-06-27T02:57:53.827Z,101981.09
2019-06-27T03:00:23.355Z,101987.27
2019-06-27T03:02:53.162Z,101981.15
2019-06-27T03:05:22.513Z,101987.76
2019-06-27T03:07:51.909Z,101988.23
2019-06-27T03:10:21.383Z,101982.94
2019-06-27T03:12:51.037Z,101986.43
2019-06-27T03:15:20.591Z,101984.26
2019-06-27T03:17:50.028Z,101991.23
2019-06-27T03:20:19.402Z,101984.68
2019-06-27T03:22:48.768Z,101982.47
2019-06-27T03:25:18.177Z,101987.21
2019-06-27T03:27:47.566Z,101985.83
2019-06-27T03:30:17.700Z,101978.28
2019-06-27T03:32:47.048Z,101979.55
2019-06-27T03:35:16.398Z,101981.33
2019-06-27T03:37:45.855Z,101983.49
2019-06-27T03:40:15.497Z,101991.36
2019-06-27T03:42:44.892Z,101989.59
2019-06-27T03:45:16.108Z,101997.03
2019-06-27T03:47:45.683Z,102001.78
2019-06-27T03:50:15.900Z,102001.70
2019-06-27T03:52:45.361Z,101992.34
2019-06-27T03:55:14.703Z,101998.41
2019-06-27T03:57:45.333Z,102002.77
2019-06-27T04:00:17.970Z,101997.83
2019-06-27T04:02:47.356Z,101998.63
2019-06-27T04:05:16.709Z,102002.04
2019-06-27T04:07:46.093Z,102009.41
2019-06-27T04:10:17.327Z,102000.94
2019-06-27T04:12:46.528Z,102004.77
2019-06-27T04:15:16.006Z,101999.41
2019-06-27T04:17:45.332Z,102001.57
2019-06-27T04:20:14.777Z,101990.98
2019-06-27T04:22:44.654Z,101999.31
2019-06-27T04:25:14.145Z,102000.58
2019-06-27T04:27:43.507Z,102003.15
2019-06-27T04:30:13.343Z,102000.09
2019-06-27T04:32:42.724Z,102000.89
2019-06-27T04:35:15.977Z,102005.70
2019-06-27T04:37:45.301Z,102008.26
2019-06-27T04:40:14.817Z,102002.91
2019-06-27T04:42:44.278Z,102009.03
2019-06-27T04:45:14.341Z,102000.19
2019-06-27T04:47:43.706Z,102001.44
2019-06-27T04:50:13.091Z,102004.48
2019-06-27T04:52:42.505Z,102009.61
2019-06-27T04:55:12.048Z,101998.97
2019-06-27T04:57:41.399Z,101998.94
2019-06-27T05:00:12.279Z,102006.75
2019-06-27T05:02:41.637Z,102004.97
2019-06-27T05:05:11.094Z,102007.55
2019-06-27T05:07:40.452Z,102006.16
2019-06-27T05:10:10.060Z,102015.80
2019-06-27T05:12:39.427Z,102016.70
2019-06-27T05:15:08.780Z,102021.92
2019-06-27T05:17:38.245Z,102026.67
2019-06-27T05:20:07.620Z,102030.98
2019-06-27T05:22:37.181Z,102032.19
2019-06-27T05:25:06.708Z,102029.80
2019-06-27T05:27:36.095Z,102031.91
2019-06-27T05:30:09.872Z,102031.67
2019-06-27T05:32:37.298Z,102032.75
2019-06-27T05:35:06.734Z,102033.36
2019-06-27T05:37:36.132Z,102039.77
2019-06-27T05:40:07.897Z,102040.86
2019-06-27T05:42:37.289Z,102042.98
2019-06-27T05:45:08.309Z,102041.95
2019-06-27T05:47:37.922Z,102039.48
2019-06-27T05:50:07.875Z,102047.27
2019-06-27T05:52:37.234Z,102038.47
2019-06-27T05:55:09.397Z,102041.46
2019-06-27T05:57:38.834Z,102048.82
2019-06-27T06:00:26.888Z,102039.78
2019-06-27T06:02:40.895Z,102042.98
2019-06-27T06:05:11.284Z,102048.16
2019-06-27T06:07:40.642Z,102046.23
2019-06-27T06:10:10.198Z,102047.92
2019-06-27T06:12:39.557Z,102040.85
2019-06-27T06:15:09.284Z,102039.39
2019-06-27T06:17:38.646Z,102038.70
2019-06-27T06:20:09.554Z,102030.09
2019-06-27T06:22:39.022Z,102029.98
2019-06-27T06:25:08.734Z,102027.27
2019-06-27T06:27:38.127Z,102022.77
2019-06-27T06:30:08.629Z,102030.06
2019-06-27T06:32:37.980Z,102031.38
2019-06-27T06:35:08.370Z,102039.13
2019-06-27T06:37:37.745Z,102036.77
2019-06-27T06:40:07.939Z,102031.97
2019-06-27T06:42:37.321Z,102038.95
2019-06-27T06:45:07.225Z,102035.88
2019-06-27T06:47:36.597Z,102039.95
2019-06-27T06:50:06.506Z,102046.82
2019-06-27T06:52:35.973Z,102045.60
2019-06-27T06:55:06.606Z,102047.34
2019-06-27T06:57:35.994Z,102036.23
2019-06-27T07:00:08.073Z,102047.89
2019-06-27T07:02:37.851Z,102043.84
2019-06-27T07:05:07.817Z,102047.49
2019-06-27T07:07:37.175Z,102042.48
2019-06-27T07:10:08.568Z,102047.36
2019-06-27T07:12:37.982Z,102050.02
2019-06-27T07:15:08.904Z,102059.08
2019-06-27T07:17:38.284Z,102056.77
2019-06-27T07:20:07.925Z,102057.66
2019-06-27T07:22:37.293Z,102055.09
2019-06-27T07:25:07.620Z,102053.32
2019-06-27T07:27:36.968Z,102044.13
2019-06-27T07:30:07.864Z,102051.51
2019-06-27T07:32:37.236Z,102054.87
2019-06-27T07:35:07.713Z,102052.66
2019-06-27T07:37:37.184Z,102059.88
2019-06-27T07:40:07.687Z,102048.59
2019-06-27T07:42:37.074Z,102062.28
2019-06-27T07:45:07.415Z,102059.11
2019-06-27T07:47:36.775Z,102051.92
2019-06-27T07:50:08.385Z,102055.56
2019-06-27T07:52:37.751Z,102056.43
2019-06-27T07:55:07.557Z,102062.64
2019-06-27T07:57:37.213Z,102061.77
2019-06-27T08:00:10.844Z,102061.03
2019-06-27T08:02:40.258Z,102057.98
2019-06-27T08:05:10.950Z,102068.25
2019-06-27T08:07:40.532Z,102059.22
2019-06-27T08:10:11.173Z,102055.71
2019-06-27T08:12:42.543Z,102058.13
2019-06-27T08:15:12.132Z,102055.53
2019-06-27T08:17:41.519Z,102056.06
2019-06-27T08:20:11.505Z,102048.47
2019-06-27T08:22:40.933Z,102049.77
2019-06-27T08:25:10.660Z,102045.38
2019-06-27T08:27:40.023Z,102047.41
2019-06-27T08:30:10.340Z,102051.70
2019-06-27T08:32:40.654Z,102051.02
2019-06-27T08:35:10.174Z,102052.88
2019-06-27T08:37:39.555Z,102046.91
2019-06-27T08:40:09.638Z,102044.20
2019-06-27T08:42:39.018Z,102038.97
2019-06-27T08:45:09.024Z,102046.81
2019-06-27T08:47:38.456Z,102048.22
2019-06-27T08:50:09.492Z,102048.22
2019-06-27T08:52:38.842Z,102045.72
2019-06-27T08:55:08.266Z,102049.02
2019-06-27T08:57:38.021Z,102047.69
2019-06-27T09:00:09.546Z,102047.69
2019-06-27T09:02:38.964Z,102041.77
2019-06-27T09:05:08.681Z,102040.98
2019-06-27T09:07:38.093Z,102035.03
2019-06-27T09:10:08.011Z,102048.53
2019-06-27T09:12:37.377Z,102044.69
2019-06-27T09:15:07.509Z,102045.09
2019-06-27T09:17:37.839Z,102043.61
2019-06-27T09:20:09.312Z,102046.00
2019-06-27T09:22:38.797Z,102040.73
2019-06-27T09:25:08.602Z,102038.17
2019-06-27T09:27:37.976Z,102031.66
2019-06-27T09:30:11.192Z,102030.96
2019-06-27T09:32:40.571Z,102034.88
2019-06-27T09:35:10.477Z,102039.14
2019-06-27T09:37:39.900Z,102033.37
2019-06-27T09:40:11.309Z,102030.22
2019-06-27T09:42:40.678Z,102032.33
2019-06-27T09:45:10.962Z,102039.09
2019-06-27T09:47:40.415Z,102036.31
2019-06-27T09:50:11.131Z,102035.32
2019-06-27T09:52:40.571Z,102031.16
2019-06-27T09:55:10.395Z,102036.97
2019-06-27T09:57:39.816Z,102033.87
2019-06-27T10:00:10.920Z,102020.34
2019-06-27T10:02:42.193Z,102020.34
2019-06-27T10:05:11.816Z,102029.20
2019-06-27T10:07:41.178Z,102030.45
2019-06-27T10:10:11.107Z,102022.03
2019-06-27T10:12:42.879Z,102022.03
2019-06-27T10:15:11.749Z,102027.34
2019-06-27T10:17:41.100Z,102025.39
2019-06-27T10:20:11.021Z,102017.41
2019-06-27T10:22:40.391Z,102019.17
2019-06-27T10:25:09.996Z,102024.67
2019-06-27T10:27:39.419Z,102018.27
2019-06-27T10:30:09.357Z,102024.27
2019-06-27T10:32:38.705Z,102018.71
2019-06-27T10:35:08.286Z,102022.63
2019-06-27T10:37:37.666Z,102012.92
2019-06-27T10:40:09.775Z,102021.16
2019-06-27T10:42:39.146Z,102019.29
2019-06-27T10:45:09.485Z,102002.65
2019-06-27T10:47:38.857Z,102005.94
2019-06-27T10:50:08.560Z,102014.38
2019-06-27T10:52:38.765Z,102010.75
2019-06-27T10:55:09.054Z,102012.31
2019-06-27T10:57:38.441Z,102011.55
2019-06-27T11:00:08.553Z,102013.11
2019-06-27T11:02:37.926Z,102010.97
2019-06-27T11:05:08.053Z,102016.42
2019-06-27T11:07:40.799Z,102013.91
2019-06-27T11:10:08.742Z,102014.90
2019-06-27T11:12:38.108Z,102020.84
2019-06-27T11:15:08.481Z,102017.30
2019-06-27T11:17:37.848Z,102008.56
2019-06-27T11:20:07.376Z,102015.06
2019-06-27T11:22:36.724Z,102010.90
2019-06-27T11:25:07.928Z,102006.28
2019-06-27T11:27:37.291Z,102000.47
2019-06-27T11:30:08.401Z,102003.74
2019-06-27T11:32:37.830Z,102003.91
2019-06-27T11:35:07.554Z,102005.09
2019-06-27T11:37:36.968Z,102004.66
2019-06-27T11:40:12.166Z,102000.48
2019-06-27T11:42:39.631Z,102001.89
2019-06-27T11:45:09.228Z,101998.66
2019-06-27T11:47:38.616Z,101998.64
2019-06-27T11:50:09.499Z,101994.00
2019-06-27T11:52:39.200Z,101994.02
2019-06-27T11:55:08.885Z,101992.59
2019-06-27T11:57:38.240Z,101991.05
2019-06-27T12:00:08.653Z,101986.08
2019-06-27T12:02:37.993Z,101982.08
2019-06-27T12:05:07.695Z,101979.56
2019-06-27T12:07:37.033Z,101979.01
2019-06-27T12:10:07.582Z,101982.01
2019-06-27T12:12:37.044Z,101978.55
2019-06-27T12:15:08.116Z,101978.69
2019-06-27T12:17:37.655Z,101966.32
2019-06-27T12:20:09.986Z,101963.78
2019-06-27T12:22:39.383Z,101964.73
2019-06-27T12:25:08.981Z,101963.58
2019-06-27T12:27:38.340Z,101961.78
2019-06-27T12:30:08.517Z,101961.16
2019-06-27T12:32:50.940Z,101950.78
2019-06-27T12:35:10.107Z,101960.77
2019-06-27T12:37:40.055Z,101955.87
2019-06-27T12:40:11.028Z,101967.62
2019-06-27T12:42:40.408Z,101950.76
2019-06-27T12:45:10.127Z,101956.83
2019-06-27T12:47:39.476Z,101954.71
2019-06-27T12:50:09.778Z,101952.23
2019-06-27T12:52:39.141Z,101950.12
2019-06-27T12:55:08.973Z,101949.02
2019-06-27T12:57:38.336Z,101948.23
2019-06-27T13:00:09.368Z,101949.95
2019-06-27T13:02:38.867Z,101940.98
2019-06-27T13:05:08.602Z,101941.45
2019-06-27T13:07:37.958Z,101942.66
2019-06-27T13:10:07.572Z,101934.69
2019-06-27T13:12:36.944Z,101937.09
2019-06-27T13:15:06.848Z,101937.33
2019-06-27T13:17:36.208Z,101929.34
2019-06-27T13:20:07.290Z,101929.90
2019-06-27T13:22:36.648Z,101926.05
2019-06-27T13:25:06.369Z,101923.44
2019-06-27T13:27:35.744Z,101920.45
2019-06-27T13:30:07.222Z,101918.27
2019-06-27T13:32:36.635Z,101912.98
2019-06-27T13:35:06.586Z,101910.41
2019-06-27T13:37:35.971Z,101906.78
2019-06-27T13:40:07.926Z,101922.59
2019-06-27T13:42:38.842Z,101911.19
2019-06-27T13:45:08.649Z,101911.32
2019-06-27T13:47:38.026Z,101910.80
2019-06-27T13:50:08.543Z,101911.80
2019-06-27T13:52:37.903Z,101901.81
2019-06-27T13:55:08.585Z,101900.48
2019-06-27T13:57:37.945Z,101899.53
2019-06-27T14:00:08.782Z,101894.64
2019-06-27T14:02:38.150Z,101908.50
2019-06-27T14:05:07.708Z,101894.74
2019-06-27T14:07:37.055Z,101892.13
2019-06-27T14:10:09.468Z,101897.59
2019-06-27T14:12:38.829Z,101894.09
2019-06-27T14:15:09.415Z,101881.78
2019-06-27T14:17:38.777Z,101886.24
2019-06-27T14:20:08.882Z,101887.13
2019-06-27T14:22:38.238Z,101878.72
2019-06-27T14:25:08.596Z,101873.36
2019-06-27T14:27:37.951Z,101879.49
2019-06-27T14:30:08.191Z,101878.55
2019-06-27T14:32:37.527Z,101886.89
2019-06-27T14:35:15.363Z,101881.44
2019-06-27T14:37:38.106Z,101882.22
2019-06-27T14:40:09.096Z,101875.53
2019-06-27T14:42:38.463Z,101880.81
2019-06-27T14:45:08.197Z,101879.83
2019-06-27T14:47:37.572Z,101872.23
2019-06-27T14:50:07.284Z,101881.83
2019-06-27T14:52:36.651Z,101874.36
2019-06-27T14:55:07.455Z,101873.52
2019-06-27T14:57:36.841Z,101864.55
2019-06-27T15:00:08.186Z,101865.33
2019-06-27T15:02:37.569Z,101874.48
2019-06-27T15:05:07.461Z,101871.19
2019-06-27T15:07:36.815Z,101866.36
2019-06-27T15:10:09.723Z,101865.91
2019-06-27T15:12:52.555Z,101869.03
2019-06-27T15:15:10.482Z,101863.36
2019-06-27T15:17:39.853Z,101866.46
2019-06-27T15:20:09.279Z,101860.16
2019-06-27T15:22:38.651Z,101859.22
2019-06-27T15:25:09.668Z,101864.63
2019-06-27T15:27:39.091Z,101861.64
2019-06-27T15:30:08.707Z,101859.42
2019-06-27T15:32:38.094Z,101863.05
2019-06-27T15:35:08.295Z,101854.85
2019-06-27T15:37:38.644Z,101854.00
2019-06-27T15:40:09.616Z,101856.19
2019-06-27T15:42:39.139Z,101852.28
2019-06-27T15:45:09.466Z,101853.52
2019-06-27T15:47:38.815Z,101847.31
2019-06-27T15:50:08.432Z,101855.27
2019-06-27T15:52:37.808Z,101853.52
2019-06-27T15:55:11.859Z,101853.13
2019-06-27T15:57:39.043Z,101841.09
2019-06-27T16:00:09.649Z,101848.72
2019-06-27T16:02:39.035Z,101857.10
2019-06-27T16:05:08.817Z,101847.38
2019-06-27T16:07:38.249Z,101846.67
2019-06-27T16:10:08.544Z,101853.85
2019-06-27T16:12:38.570Z,101841.43
2019-06-27T16:15:08.483Z,101841.05
2019-06-27T16:17:37.863Z,101832.53
2019-06-27T16:20:08.147Z,101835.69
2019-06-27T16:22:38.518Z,101830.17
2019-06-27T16:25:08.327Z,101822.22
2019-06-27T16:27:40.794Z,101826.86
2019-06-27T16:30:11.392Z,101825.45
2019-06-27T16:32:40.737Z,101825.13
2019-06-27T16:35:11.613Z,101820.34
2019-06-27T16:37:40.975Z,101819.50
2019-06-27T16:40:10.576Z,101813.20
2019-06-27T16:42:39.940Z,101817.28
2019-06-27T16:45:10.809Z,101820.41
2019-06-27T16:47:40.157Z,101816.41
2019-06-27T16:50:09.756Z,101813.73
2019-06-27T16:52:39.117Z,101815.49
2019-06-27T16:55:08.624Z,101815.17
2019-06-27T16:57:37.977Z,101816.19
2019-06-27T17:00:07.472Z,101820.76
2019-06-27T17:02:36.894Z,101814.39
2019-06-27T17:05:08.052Z,101808.16
2019-06-27T17:07:37.422Z,101821.53
2019-06-27T17:10:07.229Z,101811.95
2019-06-27T17:12:36.594Z,101810.47
2019-06-27T17:15:09.190Z,101810.22
2019-06-27T17:17:38.596Z,101813.84
2019-06-27T17:20:09.650Z,101813.94
2019-06-27T17:22:39.050Z,101813.05
2019-06-27T17:25:09.086Z,101813.61
2019-06-27T17:27:38.463Z,101811.33
2019-06-27T17:30:09.635Z,101809.28
2019-06-27T17:32:39.518Z,101814.41
2019-06-27T17:35:09.746Z,101811.51
2019-06-27T17:37:39.213Z,101811.64
2019-06-27T17:40:10.295Z,101813.92
2019-06-27T17:42:40.866Z,101815.49
2019-06-27T17:45:10.585Z,101812.53
2019-06-27T17:47:39.950Z,101812.20
2019-06-27T17:50:09.558Z,101816.21
2019-06-27T17:52:38.939Z,101818.88
2019-06-27T17:55:08.990Z,101818.17
2019-06-27T17:57:38.351Z,101815.59
2019-06-27T18:00:08.972Z,101815.73
2019-06-27T18:02:38.333Z,101814.13
2019-06-27T18:05:08.193Z,101818.36
2019-06-27T18:07:37.547Z,101810.67
2019-06-27T18:10:07.970Z,101808.23
2019-06-27T18:12:37.476Z,101815.12
2019-06-27T18:15:07.569Z,101810.80
2019-06-27T18:17:37.998Z,101801.22
2019-06-27T18:20:08.705Z,101808.02
2019-06-27T18:22:38.203Z,101815.25
2019-06-27T18:25:07.565Z,101807.45
2019-06-27T18:27:36.952Z,101808.33
2019-06-27T18:30:09.455Z,101812.16
2019-06-27T18:32:38.811Z,101806.31
2019-06-27T18:35:08.330Z,101813.20
2019-06-27T18:37:37.710Z,101810.75
2019-06-27T18:40:07.693Z,101814.63
2019-06-27T18:42:37.129Z,101817.13
2019-06-27T18:45:08.027Z,101813.94
2019-06-27T18:47:37.496Z,101815.68
2019-06-27T18:50:07.696Z,101813.09
2019-06-27T18:52:38.029Z,101813.22
2019-06-27T18:55:07.769Z,101810.80
2019-06-27T18:57:37.215Z,101814.68
2019-06-27T19:00:08.506Z,101810.24
2019-06-27T19:02:38.106Z,101803.01
2019-06-27T19:05:07.939Z,101805.51
2019-06-27T19:07:45.597Z,101798.21
2019-06-27T19:10:09.084Z,101804.16
2019-06-27T19:12:38.441Z,101796.44
2019-06-27T19:15:09.217Z,101807.43
2019-06-27T19:17:38.808Z,101803.55
2019-06-27T19:20:19.493Z,101810.95
2019-06-27T19:23:02.481Z,101802.09
2019-06-27T19:25:33.484Z,101807.27
2019-06-27T19:28:03.052Z,101807.00
2019-06-27T19:30:32.473Z,101810.47
2019-06-27T19:33:01.851Z,101821.22
2019-06-27T19:35:31.580Z,101822.62
2019-06-27T19:38:03.033Z,101824.29
2019-06-27T19:40:33.303Z,101828.61
2019-06-27T19:43:03.605Z,101826.64
2019-06-27T19:45:34.023Z,101829.47
2019-06-27T19:48:03.416Z,101835.80
2019-06-27T19:50:32.761Z,101833.23
2019-06-27T19:53:02.150Z,101837.26
2019-06-27T19:55:31.712Z,101832.47
2019-06-27T19:58:01.754Z,101841.37
2019-06-27T20:00:31.329Z,101845.82
2019-06-27T20:03:00.687Z,101848.91
2019-06-27T20:05:30.057Z,101851.97
2019-06-27T20:07:59.418Z,101849.23
2019-06-27T20:10:28.935Z,101856.16
2019-06-27T20:12:58.338Z,101853.83
2019-06-27T20:15:27.705Z,101854.14
2019-06-27T20:17:57.076Z,101860.29
2019-06-27T20:20:26.494Z,101861.52
2019-06-27T20:22:55.869Z,101862.27
2019-06-27T20:25:25.313Z,101859.98
2019-06-27T20:27:54.674Z,101865.08
2019-06-27T20:30:24.191Z,101866.66
2019-06-27T20:32:53.552Z,101870.89
2019-06-27T20:35:22.915Z,101870.73
2019-06-27T20:37:52.292Z,101868.38
2019-06-27T20:40:22.513Z,101872.19
2019-06-27T20:42:51.944Z,101873.25
2019-06-27T20:45:22.048Z,101881.00
2019-06-27T20:47:51.374Z,101876.75
2019-06-27T20:50:21.002Z,101881.78
2019-06-27T20:52:50.357Z,101884.59
2019-06-27T20:55:19.737Z,101884.35
2019-06-27T20:57:49.097Z,101891.18
2019-06-27T21:00:20.818Z,101891.81
2019-06-27T21:02:50.188Z,101891.06
2019-06-27T21:05:19.540Z,101897.47
2019-06-27T21:07:48.902Z,101894.97
2019-06-27T21:10:19.016Z,101897.74
2019-06-27T21:12:48.402Z,101903.64
2019-06-27T21:15:17.978Z,101902.94
2019-06-27T21:17:47.617Z,101902.23
2019-06-27T21:20:17.036Z,101899.73
2019-06-27T21:22:46.396Z,101898.09
2019-06-27T21:25:15.910Z,101896.06
2019-06-27T21:27:45.266Z,101894.00
2019-06-27T21:30:15.260Z,101893.23
2019-06-27T21:32:48.207Z,101891.61
2019-06-27T21:35:15.735Z,101892.22
2019-06-27T21:37:45.098Z,101894.11
2019-06-27T21:40:15.024Z,101892.01
2019-06-27T21:42:44.411Z,101888.13
2019-06-27T21:45:14.138Z,101894.41
2019-06-27T21:47:43.489Z,101896.70
2019-06-27T21:50:13.130Z,101887.13
2019-06-27T21:52:42.488Z,101890.30
2019-06-27T21:55:12.019Z,101900.11
2019-06-27T21:57:41.416Z,101892.31
2019-06-27T22:00:11.415Z,101888.86
2019-06-27T22:02:42.399Z,101892.06
2019-06-27T22:05:12.213Z,101886.45
2019-06-27T22:07:41.565Z,101883.02
2019-06-27T22:10:12.461Z,101885.28
2019-06-27T22:12:41.862Z,101882.31
2019-06-27T22:15:11.668Z,101891.64
2019-06-27T22:17:41.020Z,101883.34
2019-06-27T22:20:15.744Z,101890.03
2019-06-27T22:22:41.978Z,101885.28
2019-06-27T22:25:11.880Z,101887.09
2019-06-27T22:27:42.762Z,101887.20
2019-06-27T22:30:13.548Z,101878.97
2019-06-27T22:32:42.932Z,101877.73
2019-06-27T22:35:12.542Z,101877.84
2019-06-27T22:37:59.933Z,101883.69
2019-06-27T22:40:47.398Z,101879.40
2019-06-27T22:43:34.768Z,101875.53
2019-06-27T22:46:22.530Z,101880.95
2019-06-27T22:48:51.345Z,101871.82
2019-06-27T22:51:31.200Z,101867.55
2019-06-27T22:54:02.548Z,101872.95
2019-06-27T22:56:31.852Z,101872.16
2019-06-27T22:59:01.222Z,101865.65
2019-06-27T23:01:30.579Z,101859.60
2019-06-27T23:03:59.938Z,101869.34
2019-06-27T23:06:29.359Z,101871.59
2019-06-27T23:08:58.754Z,101871.67
2019-06-27T23:11:28.140Z,101871.32
2019-06-27T23:13:57.493Z,101873.14
2019-06-27T23:16:26.874Z,101867.95
2019-06-27T23:18:56.238Z,101871.58
2019-06-27T23:21:25.599Z,101866.81
2019-06-27T23:23:55.056Z,101869.53
2019-06-27T23:26:24.401Z,101870.97
2019-06-27T23:28:54.739Z,101867.98
2019-06-27T23:31:24.093Z,101862.80
2019-06-27T23:33:53.495Z,101867.73
2019-06-27T23:36:22.841Z,101872.66
2019-06-27T23:38:52.196Z,101868.78
2019-06-27T23:41:21.572Z,101868.89
2019-06-27T23:43:50.943Z,101866.39
2019-06-27T23:46:40.124Z,101869.99
2019-06-27T23:49:12.059Z,101868.33
2019-06-27T23:51:41.462Z,101874.56
2019-06-27T23:54:10.824Z,101871.53
2019-06-27T23:56:40.179Z,101873.32
2019-06-27T23:59:09.526Z,101875.17
